Time,TemperatureF,DewpointF,PressureIn,WindDirection,WindDirectionDegrees,WindSpeedMPH,WindSpeedGustMPH,Humidity,HourlyPrecipIn,Conditions,Clouds,dailyrainin,SoftwareType,DateUTC
2013-08-09 00:08:00,39.5,36.0,30.12,ESE,116,0.0,-999.0,87,-99.99,,,0.00,weatherlink.com 1.10,2013-08-09 06:08:00,
2013-08-09 00:23:00,38.8,35.0,30.11,ESE,116,0.0,-999.0,87,-99.99,,,0.00,weatherlink.com 1.10,2013-08-09 06:23:00,
2013-08-09 00:38:00,38.1,35.0,30.13,ESE,116,0.0,-999.0,87,-99.99,,,0.00,weatherlink.com 1.10,2013-08-09 06:38:00,
2013-08-09 00:53:00,37.5,34.0,30.13,ESE,116,0.0,-999.0,88,-99.99,,,0.00,weatherlink.com 1.10,2013-08-09 06:53:00,
2013-08-09 01:08:00,37.1,34.0,30.13,ESE,116,0.0,-999.0,89,-99.99,,,0.00,weatherlink.com 1.10,2013-08-09 07:08:00,
2013-08-09 01:23:00,37.3,35.0,30.13,ESE,116,0.0,-999.0,90,-99.99,,,0.00,weatherlink.com 1.10,2013-08-09 07:23:00,
2013-08-09 01:38:00,37.7,35.0,30.13,ESE,116,0.0,-999.0,91,-99.99,,,0.00,weatherlink.com 1.10,2013-08-09 07:38:00,
2013-08-09 01:53:00,37.5,35.0,30.13,ESE,116,0.0,-999.0,89,-99.99,,,0.00,weatherlink.com 1.10,2013-08-09 07:53:00,
2013-08-09 02:08:00,37.0,34.0,30.13,ESE,116,0.0,-999.0,89,-99.99,,,0.00,weatherlink.com 1.10,2013-08-09 08:08:00,
2013-08-09 02:23:00,36.8,34.0,30.12,ESE,116,0.0,-999.0,90,-99.99,,,0.00,weatherlink.com 1.10,2013-08-09 08:23:00,
2013-08-09 02:38:00,36.7,34.0,30.12,ESE,116,0.0,-999.0,90,-99.99,,,0.00,weatherlink.com 1.10,2013-08-09 08:38:00,
2013-08-09 02:53:00,36.8,35.0,30.13,ESE,116,0.0,-999.0,91,-99.99,,,0.00,weatherlink.com 1.10,2013-08-09 08:53:00,
2013-08-09 03:08:00,37.0,35.0,30.13,ESE,116,0.0,-999.0,91,-99.99,,,0.00,weatherlink.com 1.10,2013-08-09 09:08:00,
2013-08-09 03:23:00,37.0,34.0,30.13,ESE,116,0.0,-999.0,90,-99.99,,,0.00,weatherlink.com 1.10,2013-08-09 09:23:00,
2013-08-09 03:38:00,36.9,35.0,30.13,ESE,116,0.0,-999.0,91,-99.99,,,0.00,weatherlink.com 1.10,2013-08-09 09:38:00,
2013-08-09 03:53:00,36.9,35.0,30.13,ESE,116,0.0,-999.0,91,-99.99,,,0.00,weatherlink.com 1.10,2013-08-09 09:53:00,
2013-08-09 04:08:00,36.5,34.0,30.13,ESE,116,0.0,-999.0,89,-99.99,,,0.00,weatherlink.com 1.10,2013-08-09 10:08:00,
2013-08-09 04:23:00,35.9,33.0,30.12,ESE,116,0.0,-999.0,90,-99.99,,,0.00,weatherlink.com 1.10,2013-08-09 10:23:00,
2013-08-09 04:38:00,35.5,33.0,30.12,ESE,116,0.0,-999.0,90,-99.99,,,0.00,weatherlink.com 1.10,2013-08-09 10:38:00,
2013-08-09 04:53:00,34.9,32.0,30.11,ESE,116,0.0,-999.0,90,-99.99,,,0.00,weatherlink.com 1.10,2013-08-09 10:53:00,
2013-08-09 05:08:00,34.5,32.0,30.11,ESE,116,0.0,-999.0,90,-99.99,,,0.00,weatherlink.com 1.10,2013-08-09 11:08:00,
2013-08-09 05:23:00,34.4,32.0,30.11,ESE,116,0.0,-999.0,91,-99.99,,,0.00,weatherlink.com 1.10,2013-08-09 11:23:00,
2013-08-09 05:38:00,34.8,33.0,30.11,ESE,116,0.0,-999.0,92,-99.99,,,0.00,weatherlink.com 1.10,2013-08-09 11:38:00,
2013-08-09 05:53:00,35.4,33.0,30.11,ESE,116,0.0,-999.0,92,-99.99,,,0.00,weatherlink.com 1.10,2013-08-09 11:53:00,
2013-08-09 06:08:00,35.9,34.0,30.11,ESE,116,0.0,-999.0,92,-99.99,,,0.00,weatherlink.com 1.10,2013-08-09 12:08:00,
2013-08-09 06:23:00,36.4,34.0,30.12,ESE,116,0.0,-999.0,92,-99.99,,,0.00,weatherlink.com 1.10,2013-08-09 12:23:00,
2013-08-09 06:38:00,36.7,35.0,30.13,ESE,116,0.0,-999.0,92,-99.99,,,0.00,weatherlink.com 1.10,2013-08-09 12:38:00,
2013-08-09 06:53:00,37.1,35.0,30.14,ESE,116,0.0,-999.0,92,-99.99,,,0.00,weatherlink.com 1.10,2013-08-09 12:53:00,
2013-08-09 07:08:00,37.5,35.0,30.15,ESE,116,0.0,-999.0,92,-99.99,,,0.00,weatherlink.com 1.10,2013-08-09 13:08:00,
2013-08-09 07:23:00,38.2,36.0,30.15,ESE,116,0.0,-999.0,92,-99.99,,,0.00,weatherlink.com 1.10,2013-08-09 13:23:00,
2013-08-09 07:38:00,38.8,37.0,30.16,ESE,116,0.0,-999.0,92,-99.99,,,0.00,weatherlink.com 1.10,2013-08-09 13:38:00,
2013-08-09 07:53:00,39.9,38.0,30.16,ESE,116,0.0,-999.0,92,-99.99,,,0.00,weatherlink.com 1.10,2013-08-09 13:53:00,
2013-08-09 08:08:00,41.3,39.0,30.17,ESE,116,0.0,-999.0,91,-99.99,,,0.00,weatherlink.com 1.10,2013-08-09 14:08:00,
2013-08-09 08:23:00,43.2,38.0,30.16,ESE,116,0.0,-999.0,83,-99.99,,,0.00,weatherlink.com 1.10,2013-08-09 14:23:00,
2013-08-09 08:38:00,45.7,41.0,30.16,ESE,116,0.0,-999.0,82,-99.99,,,0.00,weatherlink.com 1.10,2013-08-09 14:38:00,
2013-08-09 08:53:00,47.6,39.0,30.16,South,191,0.0,-999.0,71,-99.99,,,0.00,weatherlink.com 1.10,2013-08-09 14:53:00,
2013-08-09 09:08:00,49.6,36.0,30.16,SSW,204,0.0,-999.0,60,-99.99,,,0.00,weatherlink.com 1.10,2013-08-09 15:08:00,
2013-08-09 09:23:00,51.4,39.0,30.15,WSW,238,0.0,-999.0,63,-99.99,,,0.00,weatherlink.com 1.10,2013-08-09 15:23:00,
2013-08-09 09:38:00,52.2,38.0,30.15,WSW,246,0.0,-999.0,60,-99.99,,,0.00,weatherlink.com 1.10,2013-08-09 15:38:00,
2013-08-09 09:53:00,52.8,37.0,30.15,WNW,299,0.0,-999.0,55,-99.99,,,0.00,weatherlink.com 1.10,2013-08-09 15:53:00,
2013-08-09 10:08:00,53.2,39.0,30.16,SW,226,2.0,-999.0,60,-99.99,,,0.00,weatherlink.com 1.10,2013-08-09 16:08:00,
2013-08-09 10:23:00,54.4,39.0,30.16,West,276,0.0,-999.0,56,-99.99,,,0.00,weatherlink.com 1.10,2013-08-09 16:23:00,
2013-08-09 10:38:00,55.9,38.0,30.15,WSW,253,0.0,-999.0,52,-99.99,,,0.00,weatherlink.com 1.10,2013-08-09 16:38:00,
2013-08-09 10:54:00,56.7,38.0,30.16,WSW,250,0.0,-999.0,50,-99.99,,,0.00,weatherlink.com 1.10,2013-08-09 16:54:00,
2013-08-09 11:08:00,54.4,39.0,30.16,SW,215,0.0,-999.0,57,-99.99,,,0.00,weatherlink.com 1.10,2013-08-09 17:08:00,
2013-08-09 11:23:00,53.4,40.0,30.16,SSE,167,0.0,-999.0,60,-99.99,,,0.00,weatherlink.com 1.10,2013-08-09 17:23:00,
2013-08-09 11:38:00,53.4,38.0,30.16,SE,126,0.0,-999.0,57,-99.99,,,0.00,weatherlink.com 1.10,2013-08-09 17:38:00,
2013-08-09 11:53:00,52.9,38.0,30.16,WSW,239,0.0,-999.0,57,-99.99,,,0.00,weatherlink.com 1.10,2013-08-09 17:53:00,
2013-08-09 12:08:00,52.5,39.0,30.16,WSW,239,0.0,-999.0,61,-99.99,,,0.00,weatherlink.com 1.10,2013-08-09 18:08:00,
2013-08-09 12:23:00,52.5,40.0,30.16,WSW,238,0.0,-999.0,62,-99.99,,,0.00,weatherlink.com 1.10,2013-08-09 18:23:00,
2013-08-09 12:38:00,54.7,40.0,30.16,West,260,0.0,-999.0,58,-99.99,,,0.00,weatherlink.com 1.10,2013-08-09 18:38:00,
2013-08-09 12:53:00,57.0,41.0,30.15,North,360,0.0,-999.0,55,-99.99,,,0.00,weatherlink.com 1.10,2013-08-09 18:53:00,
2013-08-09 13:08:00,57.2,39.0,30.15,ESE,111,0.0,-999.0,52,-99.99,,,0.00,weatherlink.com 1.10,2013-08-09 19:08:00,
2013-08-09 13:23:00,55.9,42.0,30.15,SE,136,0.0,-999.0,59,-99.99,,,0.00,weatherlink.com 1.10,2013-08-09 19:23:00,
2013-08-09 13:38:00,53.6,41.0,30.14,SSW,207,0.0,-999.0,63,-99.99,,,0.00,weatherlink.com 1.10,2013-08-09 19:38:00,
2013-08-09 13:53:00,54.0,41.0,30.14,SSW,195,0.0,-999.0,62,-99.99,,,0.00,weatherlink.com 1.10,2013-08-09 19:53:00,
2013-08-09 14:08:00,53.8,42.0,30.14,SSW,197,0.0,-999.0,65,-99.99,,,0.00,weatherlink.com 1.10,2013-08-09 20:08:00,
2013-08-09 14:23:00,53.9,41.0,30.15,SSW,205,0.0,-999.0,63,-99.99,,,0.00,weatherlink.com 1.10,2013-08-09 20:23:00,
2013-08-09 14:38:00,53.7,40.0,30.17,SSW,205,0.0,-999.0,61,-99.99,,,0.00,weatherlink.com 1.10,2013-08-09 20:38:00,
2013-08-09 14:53:00,52.8,40.0,30.17,East,94,0.0,-999.0,63,-99.99,,,0.00,weatherlink.com 1.10,2013-08-09 20:53:00,
2013-08-09 15:08:00,51.9,40.0,30.16,SSE,149,1.0,-999.0,63,-99.99,,,0.00,weatherlink.com 1.10,2013-08-09 21:08:00,
2013-08-09 15:23:00,51.9,39.0,30.16,SSE,155,0.0,-999.0,61,-99.99,,,0.00,weatherlink.com 1.10,2013-08-09 21:23:00,
2013-08-09 15:38:00,52.6,39.0,30.15,WNW,283,0.0,-999.0,60,-99.99,,,0.00,weatherlink.com 1.10,2013-08-09 21:38:00,
2013-08-09 15:53:00,52.8,39.0,30.15,West,265,0.0,-999.0,61,-99.99,,,0.00,weatherlink.com 1.10,2013-08-09 21:53:00,
2013-08-09 16:08:00,53.6,38.0,30.15,West,265,0.0,-999.0,57,-99.99,,,0.00,weatherlink.com 1.10,2013-08-09 22:08:00,
2013-08-09 16:23:00,53.6,39.0,30.14,West,264,0.0,-999.0,59,-99.99,,,0.00,weatherlink.com 1.10,2013-08-09 22:23:00,
2013-08-09 16:38:00,53.9,36.0,30.14,ESE,113,1.0,-999.0,52,-99.99,,,0.00,weatherlink.com 1.10,2013-08-09 22:38:00,
2013-08-09 16:53:00,54.0,34.0,30.13,NW,323,0.0,-999.0,48,-99.99,,,0.00,weatherlink.com 1.10,2013-08-09 22:53:00,
2013-08-09 17:09:00,54.2,35.0,30.15,NW,310,0.0,-999.0,49,-99.99,,,0.00,weatherlink.com 1.10,2013-08-09 23:09:00,
2013-08-09 17:24:00,53.2,38.0,30.15,WSW,244,0.0,-999.0,56,-99.99,,,0.00,weatherlink.com 1.10,2013-08-09 23:24:00,
2013-08-09 17:39:00,52.4,38.0,30.17,WSW,244,0.0,-999.0,59,-99.99,,,0.00,weatherlink.com 1.10,2013-08-09 23:39:00,
2013-08-09 17:54:00,51.9,38.0,30.19,WSW,244,1.0,-999.0,60,-99.99,,,0.00,weatherlink.com 1.10,2013-08-09 23:54:00,
2013-08-09 18:09:00,50.8,37.0,30.19,West,261,1.0,-999.0,59,-99.99,,,0.00,weatherlink.com 1.10,2013-08-10 00:09:00,
2013-08-09 18:24:00,49.4,38.0,30.19,NE,42,0.0,-999.0,65,-99.99,,,0.00,weatherlink.com 1.10,2013-08-10 00:24:00,
2013-08-09 18:39:00,47.7,40.0,30.18,NE,36,0.0,-999.0,76,-99.99,,,0.00,weatherlink.com 1.10,2013-08-10 00:39:00,
2013-08-09 18:54:00,46.5,40.0,30.19,ENE,66,1.0,-999.0,78,-99.99,,,0.00,weatherlink.com 1.10,2013-08-10 00:54:00,
2013-08-09 19:09:00,45.7,40.0,30.19,NE,40,1.0,-999.0,79,-99.99,,,0.00,weatherlink.com 1.10,2013-08-10 01:09:00,
2013-08-09 19:24:00,45.4,40.0,30.20,NE,46,0.0,-999.0,80,-99.99,,,0.00,weatherlink.com 1.10,2013-08-10 01:24:00,
2013-08-09 19:54:00,44.6,38.0,30.19,SE,140,0.0,-999.0,79,-99.99,,,0.00,weatherlink.com 1.10,2013-08-10 01:54:00,
2013-08-09 20:09:00,44.2,38.0,30.20,SE,140,0.0,-999.0,79,-99.99,,,0.00,weatherlink.com 1.10,2013-08-10 02:09:00,
2013-08-09 20:24:00,43.3,38.0,30.20,SE,140,0.0,-999.0,80,-99.99,,,0.00,weatherlink.com 1.10,2013-08-10 02:24:00,
2013-08-09 20:38:00,42.4,37.0,30.21,SE,140,0.0,-999.0,82,-99.99,,,0.00,weatherlink.com 1.10,2013-08-10 02:38:00,
2013-08-09 20:54:00,41.9,37.0,30.22,SE,140,0.0,-999.0,84,-99.99,,,0.00,weatherlink.com 1.10,2013-08-10 02:54:00,
2013-08-09 21:09:00,41.8,37.0,30.22,SE,140,0.0,-999.0,84,-99.99,,,0.00,weatherlink.com 1.10,2013-08-10 03:09:00,
2013-08-09 21:24:00,41.5,37.0,30.23,SE,140,0.0,-999.0,84,-99.99,,,0.00,weatherlink.com 1.10,2013-08-10 03:24:00,
2013-08-09 21:39:00,41.0,37.0,30.25,SE,140,0.0,-999.0,84,-99.99,,,0.00,weatherlink.com 1.10,2013-08-10 03:39:00,
2013-08-09 21:54:00,40.2,36.0,30.25,SE,140,0.0,-999.0,84,-99.99,,,0.00,weatherlink.com 1.10,2013-08-10 03:54:00,
2013-08-09 22:09:00,39.1,35.0,30.25,SE,140,0.0,-999.0,85,-99.99,,,0.00,weatherlink.com 1.10,2013-08-10 04:09:00,
2013-08-09 22:24:00,38.3,35.0,30.26,SE,140,0.0,-999.0,86,-99.99,,,0.00,weatherlink.com 1.10,2013-08-10 04:24:00,
2013-08-09 22:39:00,37.5,34.0,30.25,SE,140,0.0,-999.0,86,-99.99,,,0.00,weatherlink.com 1.10,2013-08-10 04:39:00,
2013-08-09 22:54:00,36.9,33.0,30.25,SE,140,0.0,-999.0,87,-99.99,,,0.00,weatherlink.com 1.10,2013-08-10 04:54:00,
2013-08-09 23:09:00,36.5,33.0,30.24,SE,140,0.0,-999.0,88,-99.99,,,0.00,weatherlink.com 1.10,2013-08-10 05:09:00,
2013-08-09 23:24:00,36.1,33.0,30.24,SE,140,0.0,-999.0,88,-99.99,,,0.00,weatherlink.com 1.10,2013-08-10 05:24:00,
2013-08-09 23:39:00,36.1,33.0,30.25,SE,140,0.0,-999.0,89,-99.99,,,0.00,weatherlink.com 1.10,2013-08-10 05:39:00,
2013-08-09 23:54:00,35.7,33.0,30.25,SE,140,0.0,-999.0,89,-99.99,,,0.00,weatherlink.com 1.10,2013-08-10 05:54:00,